Terminal Aerodrome Forecast
Issued by NWS Omaha/Valley, NE

Home | Current Version | Previous Version | Text Only | Print | Product List | Glossary On
Versions: 1 2 3 4 5 6 7 8 9 10 11 12 13 14 15 16 17 18 19 20 21 22 23 24 25 26 27 28 29 30 31 32 33 34 35 36 37 38
000
FTUS43 KOAX 250239 AAA
TAFOFK
TAF AMD
KOFK 250239Z 2503/2524 VRB03KT P6SM SCT025 OVC035
      TEMPO 2503/2507 BKN025 BKN035
     FM250700 VRB03KT 4SM BR OVC015
      TEMPO 2509/2512 2SM -SHRA BR BKN007
     FM251300 19004KT 2SM -DZ BR OVC005
     FM251500 18007KT P6SM OVC015
     FM251700 19010KT P6SM OVC050 PROB30 2520/2523 5SM TSRA
      BKN025CB=

USA.gov is the U.S. government's official web portal to all federal, state and local government web resources and services.